Ware Neck, Virginia
Current Conditions -  °F | °C
As of 5:15 AM on Saturday 25 Oct 2014 (Local Time) from KW75 Reporting Station
Clear Clear  
Wind Chill: 53°   Ceiling: Unl
Heat Index: 53°   Visibility: 10mi
Dew Point: 42°   Wind: 6mph
Humidity: 67%   Direction: 330°NNW
Pressure: 29.96"   Gusts: NA
Location:  37.4°N, 76.46°W
Report Text: KW75 250915Z AUTO 33005KT 10SM CLR 12/06 A2996 RMK AO1 T01160057
Loading
Personal Weather Stations






























Interactive Weather Map
Tropical Storm Tracking
New forecast layout! Learn more

10-Day Weather Forecast

Advertisements
Track Severe Weather on mobile